Weather reports worldwide

Advertisment
Sutton bonington, United Kingdom (99025): temperature & dewpoint: 12.08.2017 00:00:00 - 18.08.2017 00:00:00 (BST)Sutton bonington, United Kingdom (99025): temperature -20cm & temperature -100cm: 12.08.2017 00:00:00 - 18.08.2017 00:00:00 (BST)Sutton bonington, United Kingdom (99025): wind speed: 12.08.2017 00:00:00 - 18.08.2017 00:00:00 (BST)Sutton bonington, United Kingdom (99025): wind direction: 12.08.2017 00:00:00 - 18.08.2017 00:00:00 (BST)Sutton bonington, United Kingdom (99025): visibility: 12.08.2017 00:00:00 - 18.08.2017 00:00:00 (BST)Sutton bonington, United Kingdom (99025): precipitation: 12.08.2017 00:00:00 - 18.08.2017 00:00:00 (BST)
Date & Time tt [°C] td [°C] tt -20cm [°C] tt -100cm [°C] ff [km/h] ff [kn] dd vv [km] rr [mm]
18.08.2017 00:00:00 - - - - - - - - -
17.08.2017 23:00:00 16,0 12,0 - - 8 4 SSW - 0,0
17.08.2017 22:00:00 16,6 11,8 - - 5 3 SW - 0,0
17.08.2017 21:00:00 17,9 11,7 - - 8 4 SSW - 0,0
17.08.2017 20:00:00 19,7 11,4 - - 11 6 SW - 0,0
17.08.2017 19:00:00 20,5 11,0 - - 15 8 WSW - 0,0
17.08.2017 18:00:00 21,6 10,9 - - 15 8 SW - 0,0
17.08.2017 17:00:00 22,1 10,8 - - 21 11 WSW - 0,0
17.08.2017 16:00:00 22,3 11,1 - - 24 13 WSW - 0,0
17.08.2017 15:00:00 22,0 13,5 - - 18 10 SW - 0,0
17.08.2017 14:00:00 20,9 14,4 - - 16 9 WSW - 0,0
17.08.2017 13:00:00 20,7 15,7 - - 16 9 W - 0,0
17.08.2017 12:00:00 19,4 16,9 - - 15 8 W - 0,2
17.08.2017 11:00:00 20,5 17,3 - - 13 7 SW - 0,0
17.08.2017 10:00:00 20,0 17,9 17,2 17,0 15 8 SSW 10 0,0
17.08.2017 09:00:00 17,7 16,9 - - 9 5 SSW - 0,0
17.08.2017 08:00:00 16,4 15,9 - - 9 5 S - 1,0
17.08.2017 07:00:00 16,0 15,4 - - 9 5 S - 2,0
17.08.2017 06:00:00 15,8 15,2 - - 11 6 S - 1,6
17.08.2017 05:00:00 15,5 14,8 - - 13 7 S - 0,6
17.08.2017 04:00:00 14,9 14,0 - - 13 7 S - 1,0
17.08.2017 03:00:00 14,9 13,3 - - 15 8 S - -
17.08.2017 02:00:00 14,7 12,7 - - 16 9 S - 0,4
17.08.2017 01:00:00 15,8 11,9 - - 18 10 S - 0,0
17.08.2017 00:00:00 17,1 10,5 - - 16 9 S - 0,0
16.08.2017 23:00:00 17,4 10,0 - - 13 7 S - 0,0
16.08.2017 22:00:00 18,0 10,4 - - 15 8 S - 0,0
16.08.2017 21:00:00 18,6 10,8 - - 13 7 S - 0,0
16.08.2017 20:00:00 18,2 12,6 - - 5 3 S - 0,0
16.08.2017 19:00:00 20,1 11,0 - - 13 7 S - 0,0
16.08.2017 18:00:00 20,5 10,9 - - 15 8 S - 0,0
16.08.2017 17:00:00 20,9 10,8 - - 13 7 S - 0,0
16.08.2017 16:00:00 21,3 9,1 - - 16 9 SW - 0,0
16.08.2017 15:00:00 21,2 10,7 - - 16 9 SSW - 0,0
16.08.2017 14:00:00 20,9 9,2 - - 16 9 SSW - 0,0
16.08.2017 13:00:00 20,1 10,9 - - 15 8 S - 0,0
16.08.2017 12:00:00 18,4 10,2 - - 13 7 S - 0,0
16.08.2017 11:00:00 16,6 11,3 - - 11 6 SSW - 0,0
16.08.2017 10:00:00 15,8 11,2 17,0 17,0 8 4 SSW 6 0,0
16.08.2017 09:00:00 14,4 12,2 - - 4 2 S - 0,0
16.08.2017 08:00:00 12,0 10,6 - - 5 3 SE - 0,0
16.08.2017 07:00:00 10,5 10,1 - - 4 2 SE - 0,0
16.08.2017 06:00:00 8,9 8,5 - - 5 3 SE - 0,0
16.08.2017 05:00:00 8,6 7,7 - - 2 1 SE - 0,0
16.08.2017 04:00:00 9,6 8,4 - - 4 2 SSE - 0,0
16.08.2017 03:00:00 10,9 9,5 - - 8 4 SSW - 0,0
16.08.2017 02:00:00 10,2 9,0 - - 4 2 S - 0,0
16.08.2017 01:00:00 10,1 8,2 - - 2 1 S - 0,0
16.08.2017 00:00:00 12,3 9,0 - - 4 2 SW - 0,0
15.08.2017 23:00:00 14,4 9,3 - - 5 3 SW - 0,0
15.08.2017 22:00:00 15,9 9,7 - - 8 4 W - 0,0
15.08.2017 21:00:00 16,5 10,1 - - 4 2 W - 0,0
15.08.2017 20:00:00 18,7 9,7 - - 11 6 W - 0,0
15.08.2017 19:00:00 19,8 8,8 - - 18 10 W - 0,0
15.08.2017 18:00:00 20,4 8,6 - - 21 11 W - 0,0
15.08.2017 17:00:00 20,0 9,8 - - 18 10 W - 0,0
15.08.2017 16:00:00 21,1 9,4 - - 18 10 W - 0,0
15.08.2017 15:00:00 20,5 10,1 - - 16 9 W - 0,0
15.08.2017 14:00:00 20,9 10,6 - - 16 9 WSW - 0,0
15.08.2017 13:00:00 20,0 11,9 - - 18 10 W - 0,0
15.08.2017 12:00:00 18,6 10,8 - - 15 8 W - 0,0
15.08.2017 11:00:00 18,5 12,0 - - 15 8 W - 0,0
15.08.2017 10:00:00 17,3 12,4 17,0 16,9 16 9 W 10 0,0
15.08.2017 09:00:00 16,3 12,9 - - 15 8 WSW - 0,0
15.08.2017 08:00:00 15,3 12,9 - - 11 6 SW - 0,0
15.08.2017 07:00:00 14,0 12,5 - - 8 4 SSW - 0,0
15.08.2017 06:00:00 13,8 12,4 - - 9 5 SSW - 0,0
15.08.2017 05:00:00 14,0 12,6 - - 11 6 S - 0,0
15.08.2017 04:00:00 14,1 12,3 - - 5 3 SSW - 0,0
15.08.2017 03:00:00 15,0 12,3 - - 8 4 SSW - 0,0
15.08.2017 02:00:00 15,9 12,6 - - 11 6 S - 0,0
15.08.2017 01:00:00 15,0 12,7 - - 5 3 S - 0,0
15.08.2017 00:00:00 15,6 12,5 - - 8 4 SSW - 0,0
14.08.2017 23:00:00 16,4 13,4 - - 9 5 S - 0,0
14.08.2017 22:00:00 16,7 14,2 - - 9 5 S 10 0,0
14.08.2017 21:00:00 17,2 14,2 - - 11 6 S - 0,0
14.08.2017 20:00:00 18,6 13,8 - - 8 4 S - 0,0
14.08.2017 19:00:00 19,5 12,9 - - 8 4 S - 0,0
14.08.2017 18:00:00 19,8 12,6 - - 8 4 SSW - 0,0
14.08.2017 17:00:00 20,8 12,4 - - 9 5 S - 0,0
14.08.2017 16:00:00 20,6 12,6 - - 11 6 S - 0,0
14.08.2017 15:00:00 19,0 12,0 - - 13 7 S - 0,0
14.08.2017 14:00:00 19,5 13,1 - - 13 7 SSW - 0,0
14.08.2017 13:00:00 18,1 11,9 - - 11 6 S - 0,0
14.08.2017 12:00:00 17,2 11,8 - - 11 6 S - 0,0
14.08.2017 11:00:00 15,4 11,7 - - 11 6 S - 0,0
14.08.2017 10:00:00 15,7 11,3 16,7 16,9 9 5 S 10 0,0
14.08.2017 09:00:00 14,8 10,9 - - 11 6 SSE - 0,0
14.08.2017 08:00:00 13,2 10,3 - - 8 4 SSE - 0,0
14.08.2017 07:00:00 11,8 9,6 - - 9 5 SSE - 0,0
14.08.2017 06:00:00 11,6 9,0 - - 9 5 SSE - 0,0
14.08.2017 05:00:00 12,1 8,7 - - 9 5 SSE - 0,0
14.08.2017 04:00:00 12,6 8,5 - - 11 6 SSE - 0,0
14.08.2017 03:00:00 12,7 8,3 - - 9 5 SSE - 0,0
14.08.2017 02:00:00 13,3 8,9 - - 9 5 SSE - 0,0
14.08.2017 01:00:00 13,0 8,9 - - 9 5 SSE - 0,0
14.08.2017 00:00:00 13,0 8,8 - - 5 3 SSE - 0,0
13.08.2017 23:00:00 14,1 8,7 - - 5 3 SE - 0,0
13.08.2017 22:00:00 14,9 9,6 - - 5 3 ESE - 0,0
13.08.2017 21:00:00 14,7 10,2 - - 5 3 ESE - 0,0
13.08.2017 20:00:00 17,7 8,6 - - 4 2 ESE - 0,0
13.08.2017 19:00:00 18,7 6,6 - - 4 2 S - 0,0
13.08.2017 18:00:00 18,8 7,3 - - 5 3 SW - 0,0
13.08.2017 17:00:00 19,7 8,1 - - 4 2 SW - 0,0
13.08.2017 16:00:00 18,3 8,7 - - 8 4 WNW - 0,0
13.08.2017 15:00:00 18,5 8,9 - - 8 4 W - 0,0
13.08.2017 14:00:00 18,1 8,6 - - 8 4 SW - 0,0
13.08.2017 13:00:00 17,1 8,1 - - 11 6 W - 0,0
13.08.2017 12:00:00 17,6 10,3 - - 11 6 NW - 0,0
13.08.2017 11:00:00 16,5 9,0 - - 11 6 W - 0,0
13.08.2017 10:00:00 15,4 10,9 16,7 16,9 13 7 WNW - 0,0
13.08.2017 09:00:00 13,1 10,3 - - 11 6 W - 0,0
13.08.2017 08:00:00 11,8 9,8 - - 5 3 W - 0,0
13.08.2017 07:00:00 9,9 8,9 - - 8 4 W - 0,0
13.08.2017 06:00:00 8,9 8,0 - - 9 5 WSW - 0,0
13.08.2017 05:00:00 9,1 8,1 - - 9 5 WSW - 0,0
13.08.2017 04:00:00 9,3 8,1 - - 4 2 WNW - 0,0
13.08.2017 03:00:00 9,6 8,4 - - 5 3 W - 0,0
13.08.2017 02:00:00 10,2 8,6 - - 9 5 WNW - 0,0
13.08.2017 01:00:00 11,1 9,0 - - 9 5 W - 0,0
13.08.2017 00:00:00 11,2 8,8 - - 5 3 WNW - 0,0
12.08.2017 23:00:00 12,5 9,3 - - 9 5 W - 0,0
12.08.2017 22:00:00 13,6 9,7 - - 11 6 W - 0,0
12.08.2017 21:00:00 15,0 10,3 - - 13 7 WNW - 0,0
12.08.2017 20:00:00 17,0 9,9 - - 15 8 NW - 0,0
12.08.2017 19:00:00 18,1 9,8 - - 21 11 WNW - 0,0
12.08.2017 18:00:00 18,4 11,0 - - 22 12 WNW - 0,0
12.08.2017 17:00:00 20,1 11,9 - - 18 10 W - 0,0
12.08.2017 16:00:00 19,2 12,3 - - 16 9 WNW - 0,0
12.08.2017 15:00:00 19,7 13,5 - - 22 12 W - 0,0
12.08.2017 14:00:00 19,1 11,6 - - 22 12 W - 0,0
12.08.2017 13:00:00 18,5 11,2 - - 21 11 W - 0,0
12.08.2017 12:00:00 18,0 10,6 - - 21 11 W - 0,0
12.08.2017 11:00:00 17,4 10,3 - - 18 10 W - 0,0
12.08.2017 10:00:00 16,6 11,7 16,9 16,7 18 10 W 2,2 0,0
12.08.2017 09:00:00 16,1 12,1 - - 16 9 W - 0,0
12.08.2017 08:00:00 15,1 12,5 - - 13 7 W - 0,0
12.08.2017 07:00:00 14,8 12,9 - - 11 6 W - 0,0
12.08.2017 06:00:00 14,8 13,4 - - 8 4 WSW - 0,0
12.08.2017 05:00:00 14,8 13,9 - - 5 3 WSW - 0,0
12.08.2017 04:00:00 15,7 14,5 - - 8 4 WSW - 0,0
12.08.2017 03:00:00 16,2 14,9 - - 8 4 WSW - 0,0
12.08.2017 02:00:00 16,2 14,8 - - 9 5 WSW - 0,0
12.08.2017 01:00:00 16,5 15,3 - - 9 5 SW - 0,0
12.08.2017 00:00:00 16,6 15,3 - - 11 6 SW - 0,2

tt = temperature
td = dewpoint
tt -20cm = temperature -20cm
tt -100cm = temperature -100cm
ff = wind speed
dd = wind direction
vv = visibility
rr = precipitation

Next stations